sensor_id;sensor_type;location;lat;lon;timestamp;P1;durP1;ratioP1;P2;durP2;ratioP2
74535;SDS011;63013;51.104;-115.370;2022-09-17T00:01:35;32.30;;;21.70;;
74535;SDS011;63013;51.104;-115.370;2022-09-17T00:04:03;27.00;;;19.10;;
74535;SDS011;63013;51.104;-115.370;2022-09-17T00:06:34;30.20;;;20.20;;
74535;SDS011;63013;51.104;-115.370;2022-09-17T00:09:04;29.90;;;20.20;;
74535;SDS011;63013;51.104;-115.370;2022-09-17T00:11:35;29.80;;;19.70;;
74535;SDS011;63013;51.104;-115.370;2022-09-17T00:14:05;30.10;;;19.60;;
74535;SDS011;63013;51.104;-115.370;2022-09-17T00:16:41;26.80;;;18.80;;
74535;SDS011;63013;51.104;-115.370;2022-09-17T00:19:19;26.90;;;18.50;;
74535;SDS011;63013;51.104;-115.370;2022-09-17T00:21:48;29.00;;;18.50;;
74535;SDS011;63013;51.104;-115.370;2022-09-17T00:24:17;28.40;;;19.00;;
74535;SDS011;63013;51.104;-115.370;2022-09-17T00:26:46;26.70;;;18.50;;
74535;SDS011;63013;51.104;-115.370;2022-09-17T00:29:15;28.10;;;17.90;;
74535;SDS011;63013;51.104;-115.370;2022-09-17T00:31:42;27.00;;;18.30;;
74535;SDS011;63013;51.104;-115.370;2022-09-17T00:34:12;26.70;;;17.80;;
74535;SDS011;63013;51.104;-115.370;2022-09-17T00:36:40;25.20;;;18.30;;
74535;SDS011;63013;51.104;-115.370;2022-09-17T00:39:09;26.80;;;18.50;;
74535;SDS011;63013;51.104;-115.370;2022-09-17T00:41:38;27.50;;;18.10;;
74535;SDS011;63013;51.104;-115.370;2022-09-17T00:47:21;22.90;;;16.30;;
74535;SDS011;63013;51.104;-115.370;2022-09-17T00:50:03;25.60;;;16.50;;
74535;SDS011;63013;51.104;-115.370;2022-09-17T00:52:45;26.70;;;17.70;;
74535;SDS011;63013;51.104;-115.370;2022-09-17T00:55:29;25.70;;;17.50;;
74535;SDS011;63013;51.104;-115.370;2022-09-17T00:58:01;24.30;;;16.90;;
74535;SDS011;63013;51.104;-115.370;2022-09-17T01:00:30;26.60;;;16.90;;
74535;SDS011;63013;51.104;-115.370;2022-09-17T01:02:58;22.70;;;15.40;;
74535;SDS011;63013;51.104;-115.370;2022-09-17T01:09:04;22.40;;;14.80;;
74535;SDS011;63013;51.104;-115.370;2022-09-17T01:15:07;23.30;;;15.90;;
74535;SDS011;63013;51.104;-115.370;2022-09-17T01:18:10;24.20;;;16.00;;
74535;SDS011;63013;51.104;-115.370;2022-09-17T01:30:18;21.40;;;15.20;;
74535;SDS011;63013;51.104;-115.370;2022-09-17T01:47:49;21.50;;;14.40;;
74535;SDS011;63013;51.104;-115.370;2022-09-17T01:50:38;22.30;;;14.70;;
74535;SDS011;63013;51.104;-115.370;2022-09-17T01:53:10;19.60;;;13.40;;
74535;SDS011;63013;51.104;-115.370;2022-09-17T01:55:42;21.30;;;14.20;;
74535;SDS011;63013;51.104;-115.370;2022-09-17T01:58:19;21.40;;;15.10;;
74535;SDS011;63013;51.104;-115.370;2022-09-17T02:00:54;23.10;;;14.40;;
74535;SDS011;63013;51.104;-115.370;2022-09-17T02:04:18;21.80;;;14.10;;
74535;SDS011;63013;51.104;-115.370;2022-09-17T02:06:30;20.10;;;14.30;;
74535;SDS011;63013;51.104;-115.370;2022-09-17T02:09:25;20.30;;;14.10;;
74535;SDS011;63013;51.104;-115.370;2022-09-17T02:11:59;20.20;;;14.50;;
74535;SDS011;63013;51.104;-115.370;2022-09-17T02:14:56;18.60;;;13.20;;
74535;SDS011;63013;51.104;-115.370;2022-09-17T02:20:49;21.40;;;13.20;;
74535;SDS011;63013;51.104;-115.370;2022-09-17T02:23:28;19.10;;;13.60;;
74535;SDS011;63013;51.104;-115.370;2022-09-17T02:26:11;18.00;;;13.50;;
74535;SDS011;63013;51.104;-115.370;2022-09-17T02:28:53;20.40;;;14.10;;
74535;SDS011;63013;51.104;-115.370;2022-09-17T02:31:25;18.90;;;13.20;;
74535;SDS011;63013;51.104;-115.370;2022-09-17T02:33:54;18.60;;;13.70;;
74535;SDS011;63013;51.104;-115.370;2022-09-17T02:36:27;18.70;;;13.30;;
74535;SDS011;63013;51.104;-115.370;2022-09-17T02:39:01;18.80;;;13.70;;
74535;SDS011;63013;51.104;-115.370;2022-09-17T02:59:20;17.40;;;12.40;;
74535;SDS011;63013;51.104;-115.370;2022-09-17T03:02:35;19.10;;;12.20;;
74535;SDS011;63013;51.104;-115.370;2022-09-17T03:05:09;17.60;;;12.20;;
74535;SDS011;63013;51.104;-115.370;2022-09-17T03:07:37;17.90;;;12.40;;
74535;SDS011;63013;51.104;-115.370;2022-09-17T03:10:04;18.60;;;12.30;;
74535;SDS011;63013;51.104;-115.370;2022-09-17T03:12:33;17.90;;;12.40;;
74535;SDS011;63013;51.104;-115.370;2022-09-17T03:15:01;16.60;;;12.10;;
74535;SDS011;63013;51.104;-115.370;2022-09-17T03:17:29;18.30;;;12.30;;
74535;SDS011;63013;51.104;-115.370;2022-09-17T03:19:56;17.30;;;12.20;;
74535;SDS011;63013;51.104;-115.370;2022-09-17T03:22:23;18.50;;;11.90;;
74535;SDS011;63013;51.104;-115.370;2022-09-17T03:24:50;16.60;;;11.50;;
74535;SDS011;63013;51.104;-115.370;2022-09-17T03:27:17;18.70;;;11.60;;
74535;SDS011;63013;51.104;-115.370;2022-09-17T03:29:45;17.80;;;11.80;;
74535;SDS011;63013;51.104;-115.370;2022-09-17T03:32:12;18.70;;;12.00;;
74535;SDS011;63013;51.104;-115.370;2022-09-17T03:34:39;17.80;;;11.70;;
74535;SDS011;63013;51.104;-115.370;2022-09-17T03:37:06;15.20;;;11.30;;
74535;SDS011;63013;51.104;-115.370;2022-09-17T03:39:33;19.00;;;12.40;;
74535;SDS011;63013;51.104;-115.370;2022-09-17T03:42:01;16.90;;;11.30;;
74535;SDS011;63013;51.104;-115.370;2022-09-17T03:44:28;16.90;;;11.90;;
74535;SDS011;63013;51.104;-115.370;2022-09-17T03:46:55;18.80;;;11.70;;
74535;SDS011;63013;51.104;-115.370;2022-09-17T03:49:23;16.10;;;11.20;;
74535;SDS011;63013;51.104;-115.370;2022-09-17T03:51:50;16.00;;;11.20;;
74535;SDS011;63013;51.104;-115.370;2022-09-17T03:54:17;16.00;;;11.10;;
74535;SDS011;63013;51.104;-115.370;2022-09-17T03:56:44;16.70;;;11.60;;
74535;SDS011;63013;51.104;-115.370;2022-09-17T03:59:11;17.70;;;11.50;;
74535;SDS011;63013;51.104;-115.370;2022-09-17T04:01:39;15.30;;;10.90;;
74535;SDS011;63013;51.104;-115.370;2022-09-17T04:04:06;16.30;;;11.20;;
74535;SDS011;63013;51.104;-115.370;2022-09-17T04:06:34;15.60;;;11.00;;
74535;SDS011;63013;51.104;-115.370;2022-09-17T04:09:01;14.90;;;10.80;;
74535;SDS011;63013;51.104;-115.370;2022-09-17T04:11:30;15.90;;;11.30;;
74535;SDS011;63013;51.104;-115.370;2022-09-17T04:13:57;17.20;;;11.00;;
74535;SDS011;63013;51.104;-115.370;2022-09-17T04:16:24;16.80;;;11.20;;
74535;SDS011;63013;51.104;-115.370;2022-09-17T04:18:51;16.60;;;11.00;;
74535;SDS011;63013;51.104;-115.370;2022-09-17T04:21:19;16.40;;;11.00;;
74535;SDS011;63013;51.104;-115.370;2022-09-17T04:23:46;16.10;;;11.10;;
74535;SDS011;63013;51.104;-115.370;2022-09-17T04:26:13;13.70;;;10.30;;
74535;SDS011;63013;51.104;-115.370;2022-09-17T04:28:40;16.00;;;11.00;;
74535;SDS011;63013;51.104;-115.370;2022-09-17T04:31:11;16.50;;;11.40;;
74535;SDS011;63013;51.104;-115.370;2022-09-17T04:33:38;15.10;;;10.80;;
74535;SDS011;63013;51.104;-115.370;2022-09-17T04:36:05;15.60;;;10.40;;
74535;SDS011;63013;51.104;-115.370;2022-09-17T04:38:32;16.30;;;10.40;;
74535;SDS011;63013;51.104;-115.370;2022-09-17T04:40:59;16.00;;;10.60;;
74535;SDS011;63013;51.104;-115.370;2022-09-17T04:43:26;14.90;;;10.00;;
74535;SDS011;63013;51.104;-115.370;2022-09-17T04:45:53;15.70;;;10.90;;
74535;SDS011;63013;51.104;-115.370;2022-09-17T04:48:21;14.70;;;10.20;;
74535;SDS011;63013;51.104;-115.370;2022-09-17T04:50:48;13.90;;;9.60;;
74535;SDS011;63013;51.104;-115.370;2022-09-17T04:53:15;14.40;;;10.30;;
74535;SDS011;63013;51.104;-115.370;2022-09-17T04:55:44;15.20;;;10.50;;
74535;SDS011;63013;51.104;-115.370;2022-09-17T04:58:11;15.10;;;10.30;;
74535;SDS011;63013;51.104;-115.370;2022-09-17T05:00:38;14.80;;;10.40;;
74535;SDS011;63013;51.104;-115.370;2022-09-17T05:03:07;15.10;;;10.40;;
74535;SDS011;63013;51.104;-115.370;2022-09-17T05:05:35;15.60;;;10.80;;
74535;SDS011;63013;51.104;-115.370;2022-09-17T05:08:02;14.30;;;10.30;;
74535;SDS011;63013;51.104;-115.370;2022-09-17T05:10:29;14.30;;;9.70;;
74535;SDS011;63013;51.104;-115.370;2022-09-17T05:12:56;14.90;;;10.30;;
74535;SDS011;63013;51.104;-115.370;2022-09-17T05:15:24;14.40;;;9.80;;
74535;SDS011;63013;51.104;-115.370;2022-09-17T05:17:51;15.40;;;10.30;;
74535;SDS011;63013;51.104;-115.370;2022-09-17T05:20:18;15.10;;;10.30;;
74535;SDS011;63013;51.104;-115.370;2022-09-17T05:22:50;14.80;;;10.40;;
74535;SDS011;63013;51.104;-115.370;2022-09-17T05:25:19;15.20;;;10.00;;
74535;SDS011;63013;51.104;-115.370;2022-09-17T05:27:52;14.20;;;10.00;;
74535;SDS011;63013;51.104;-115.370;2022-09-17T05:30:20;13.90;;;9.50;;
74535;SDS011;63013;51.104;-115.370;2022-09-17T05:32:47;14.70;;;9.80;;
74535;SDS011;63013;51.104;-115.370;2022-09-17T05:35:15;13.10;;;9.50;;
74535;SDS011;63013;51.104;-115.370;2022-09-17T05:37:42;14.30;;;9.50;;
74535;SDS011;63013;51.104;-115.370;2022-09-17T05:40:09;14.30;;;9.70;;
74535;SDS011;63013;51.104;-115.370;2022-09-17T05:42:36;14.90;;;9.20;;
74535;SDS011;63013;51.104;-115.370;2022-09-17T05:45:05;12.20;;;9.20;;
74535;SDS011;63013;51.104;-115.370;2022-09-17T05:47:33;14.40;;;9.80;;
74535;SDS011;63013;51.104;-115.370;2022-09-17T05:50:00;14.10;;;9.70;;
74535;SDS011;63013;51.104;-115.370;2022-09-17T05:52:27;13.30;;;9.30;;
74535;SDS011;63013;51.104;-115.370;2022-09-17T05:54:55;14.70;;;10.00;;
74535;SDS011;63013;51.104;-115.370;2022-09-17T05:57:23;14.10;;;9.30;;
74535;SDS011;63013;51.104;-115.370;2022-09-17T05:59:51;13.10;;;9.30;;
74535;SDS011;63013;51.104;-115.370;2022-09-17T06:02:18;11.80;;;9.20;;
74535;SDS011;63013;51.104;-115.370;2022-09-17T06:04:45;13.60;;;9.60;;
74535;SDS011;63013;51.104;-115.370;2022-09-17T06:07:12;12.80;;;9.50;;
74535;SDS011;63013;51.104;-115.370;2022-09-17T06:09:39;12.60;;;8.70;;
74535;SDS011;63013;51.104;-115.370;2022-09-17T06:12:06;13.50;;;9.40;;
74535;SDS011;63013;51.104;-115.370;2022-09-17T06:14:34;13.40;;;9.10;;
74535;SDS011;63013;51.104;-115.370;2022-09-17T06:17:01;13.90;;;9.50;;
74535;SDS011;63013;51.104;-115.370;2022-09-17T06:19:28;13.60;;;9.20;;
74535;SDS011;63013;51.104;-115.370;2022-09-17T06:21:55;12.90;;;8.90;;
74535;SDS011;63013;51.104;-115.370;2022-09-17T06:24:22;13.60;;;9.50;;
74535;SDS011;63013;51.104;-115.370;2022-09-17T06:26:51;12.80;;;8.70;;
74535;SDS011;63013;51.104;-115.370;2022-09-17T06:29:18;12.80;;;8.90;;
74535;SDS011;63013;51.104;-115.370;2022-09-17T06:31:47;13.00;;;9.70;;
74535;SDS011;63013;51.104;-115.370;2022-09-17T06:34:15;12.50;;;9.20;;
74535;SDS011;63013;51.104;-115.370;2022-09-17T06:36:42;12.10;;;8.90;;
74535;SDS011;63013;51.104;-115.370;2022-09-17T06:39:10;11.40;;;8.20;;
74535;SDS011;63013;51.104;-115.370;2022-09-17T06:41:37;13.40;;;9.40;;
74535;SDS011;63013;51.104;-115.370;2022-09-17T06:44:07;12.50;;;9.00;;
74535;SDS011;63013;51.104;-115.370;2022-09-17T06:46:34;12.60;;;8.90;;
74535;SDS011;63013;51.104;-115.370;2022-09-17T06:49:02;12.80;;;9.30;;
74535;SDS011;63013;51.104;-115.370;2022-09-17T06:51:29;12.00;;;8.20;;
74535;SDS011;63013;51.104;-115.370;2022-09-17T06:53:56;12.60;;;9.20;;
74535;SDS011;63013;51.104;-115.370;2022-09-17T06:56:23;13.20;;;8.60;;
74535;SDS011;63013;51.104;-115.370;2022-09-17T06:58:50;12.90;;;8.40;;
74535;SDS011;63013;51.104;-115.370;2022-09-17T07:01:19;13.40;;;8.70;;
74535;SDS011;63013;51.104;-115.370;2022-09-17T07:03:46;11.40;;;8.50;;
74535;SDS011;63013;51.104;-115.370;2022-09-17T07:06:14;12.60;;;9.20;;
74535;SDS011;63013;51.104;-115.370;2022-09-17T07:08:41;11.10;;;8.30;;
74535;SDS011;63013;51.104;-115.370;2022-09-17T07:11:09;12.10;;;8.70;;
74535;SDS011;63013;51.104;-115.370;2022-09-17T07:13:36;11.40;;;8.00;;
74535;SDS011;63013;51.104;-115.370;2022-09-17T07:16:04;11.60;;;8.10;;
74535;SDS011;63013;51.104;-115.370;2022-09-17T07:18:32;11.30;;;8.20;;
74535;SDS011;63013;51.104;-115.370;2022-09-17T07:21:03;12.40;;;8.70;;
74535;SDS011;63013;51.104;-115.370;2022-09-17T07:23:33;11.80;;;8.50;;
74535;SDS011;63013;51.104;-115.370;2022-09-17T07:26:06;13.20;;;8.90;;
74535;SDS011;63013;51.104;-115.370;2022-09-17T07:28:41;10.60;;;8.20;;
74535;SDS011;63013;51.104;-115.370;2022-09-17T07:31:10;9.90;;;8.00;;
74535;SDS011;63013;51.104;-115.370;2022-09-17T07:33:38;11.90;;;7.90;;
74535;SDS011;63013;51.104;-115.370;2022-09-17T07:36:09;10.80;;;8.00;;
74535;SDS011;63013;51.104;-115.370;2022-09-17T07:38:38;11.40;;;8.40;;
74535;SDS011;63013;51.104;-115.370;2022-09-17T07:41:12;11.20;;;8.30;;
74535;SDS011;63013;51.104;-115.370;2022-09-17T07:43:42;11.90;;;8.30;;
74535;SDS011;63013;51.104;-115.370;2022-09-17T07:46:17;11.90;;;8.70;;
74535;SDS011;63013;51.104;-115.370;2022-09-17T07:48:46;12.10;;;8.60;;
74535;SDS011;63013;51.104;-115.370;2022-09-17T07:51:21;11.00;;;7.90;;
74535;SDS011;63013;51.104;-115.370;2022-09-17T07:53:51;11.00;;;7.80;;
74535;SDS011;63013;51.104;-115.370;2022-09-17T07:56:20;11.80;;;7.60;;
74535;SDS011;63013;51.104;-115.370;2022-09-17T07:58:48;10.50;;;7.80;;
74535;SDS011;63013;51.104;-115.370;2022-09-17T08:01:16;11.40;;;7.80;;
74535;SDS011;63013;51.104;-115.370;2022-09-17T08:03:53;12.00;;;8.70;;
74535;SDS011;63013;51.104;-115.370;2022-09-17T08:06:23;11.30;;;8.40;;
74535;SDS011;63013;51.104;-115.370;2022-09-17T08:08:53;9.10;;;7.20;;
74535;SDS011;63013;51.104;-115.370;2022-09-17T08:11:25;11.50;;;7.80;;
74535;SDS011;63013;51.104;-115.370;2022-09-17T08:13:54;10.90;;;7.90;;
74535;SDS011;63013;51.104;-115.370;2022-09-17T08:16:22;11.40;;;8.60;;
74535;SDS011;63013;51.104;-115.370;2022-09-17T08:18:55;10.80;;;7.80;;
74535;SDS011;63013;51.104;-115.370;2022-09-17T08:21:22;11.40;;;7.90;;
74535;SDS011;63013;51.104;-115.370;2022-09-17T08:23:50;10.80;;;7.90;;
74535;SDS011;63013;51.104;-115.370;2022-09-17T08:26:19;11.10;;;7.80;;
74535;SDS011;63013;51.104;-115.370;2022-09-17T08:28:52;9.90;;;7.60;;
74535;SDS011;63013;51.104;-115.370;2022-09-17T08:31:23;11.10;;;7.90;;
74535;SDS011;63013;51.104;-115.370;2022-09-17T08:33:53;11.20;;;8.30;;
74535;SDS011;63013;51.104;-115.370;2022-09-17T08:36:20;10.00;;;7.30;;
74535;SDS011;63013;51.104;-115.370;2022-09-17T08:38:52;10.50;;;7.70;;
74535;SDS011;63013;51.104;-115.370;2022-09-17T08:41:27;10.40;;;7.30;;
74535;SDS011;63013;51.104;-115.370;2022-09-17T08:46:58;11.70;;;8.20;;
74535;SDS011;63013;51.104;-115.370;2022-09-17T08:49:35;10.40;;;7.30;;
74535;SDS011;63013;51.104;-115.370;2022-09-17T09:00:52;10.80;;;7.30;;
74535;SDS011;63013;51.104;-115.370;2022-09-17T09:06:16;11.00;;;7.90;;
74535;SDS011;63013;51.104;-115.370;2022-09-17T09:09:02;9.80;;;7.00;;
74535;SDS011;63013;51.104;-115.370;2022-09-17T09:11:45;10.20;;;7.10;;
74535;SDS011;63013;51.104;-115.370;2022-09-17T09:14:27;10.50;;;7.10;;
74535;SDS011;63013;51.104;-115.370;2022-09-17T09:17:04;10.40;;;7.30;;
74535;SDS011;63013;51.104;-115.370;2022-09-17T09:19:53;10.80;;;7.10;;
74535;SDS011;63013;51.104;-115.370;2022-09-17T09:25:25;10.50;;;6.70;;
74535;SDS011;63013;51.104;-115.370;2022-09-17T09:34:11;9.20;;;6.80;;
74535;SDS011;63013;51.104;-115.370;2022-09-17T09:36:40;9.20;;;6.90;;
74535;SDS011;63013;51.104;-115.370;2022-09-17T09:39:39;9.50;;;6.90;;
74535;SDS011;63013;51.104;-115.370;2022-09-17T09:42:26;9.20;;;6.80;;
74535;SDS011;63013;51.104;-115.370;2022-09-17T09:45:30;9.60;;;6.90;;
74535;SDS011;63013;51.104;-115.370;2022-09-17T09:48:26;9.40;;;7.00;;
74535;SDS011;63013;51.104;-115.370;2022-09-17T09:56:48;8.80;;;6.90;;
74535;SDS011;63013;51.104;-115.370;2022-09-17T09:59:21;9.70;;;6.90;;
74535;SDS011;63013;51.104;-115.370;2022-09-17T10:01:48;10.80;;;7.10;;
74535;SDS011;63013;51.104;-115.370;2022-09-17T10:04:21;8.50;;;6.60;;
74535;SDS011;63013;51.104;-115.370;2022-09-17T10:06:52;9.80;;;7.30;;
74535;SDS011;63013;51.104;-115.370;2022-09-17T10:09:45;8.90;;;6.80;;
74535;SDS011;63013;51.104;-115.370;2022-09-17T10:12:16;10.10;;;6.70;;
74535;SDS011;63013;51.104;-115.370;2022-09-17T10:14:45;9.40;;;6.80;;
74535;SDS011;63013;51.104;-115.370;2022-09-17T10:17:23;8.00;;;6.10;;
74535;SDS011;63013;51.104;-115.370;2022-09-17T10:22:35;8.30;;;6.60;;
74535;SDS011;63013;51.104;-115.370;2022-09-17T10:25:27;9.30;;;6.70;;
74535;SDS011;63013;51.104;-115.370;2022-09-17T10:27:59;9.10;;;6.50;;
74535;SDS011;63013;51.104;-115.370;2022-09-17T10:30:29;8.10;;;6.30;;
74535;SDS011;63013;51.104;-115.370;2022-09-17T10:33:18;10.00;;;6.60;;
74535;SDS011;63013;51.104;-115.370;2022-09-17T10:35:57;9.50;;;6.90;;
74535;SDS011;63013;51.104;-115.370;2022-09-17T10:38:33;8.10;;;6.50;;
74535;SDS011;63013;51.104;-115.370;2022-09-17T10:41:21;8.80;;;6.30;;
74535;SDS011;63013;51.104;-115.370;2022-09-17T10:43:50;9.40;;;6.50;;
74535;SDS011;63013;51.104;-115.370;2022-09-17T10:46:27;9.10;;;6.30;;
74535;SDS011;63013;51.104;-115.370;2022-09-17T10:49:08;9.30;;;6.90;;
74535;SDS011;63013;51.104;-115.370;2022-09-17T10:52:13;8.40;;;6.30;;
74535;SDS011;63013;51.104;-115.370;2022-09-17T10:58:10;10.00;;;6.80;;
74535;SDS011;63013;51.104;-115.370;2022-09-17T11:01:01;8.30;;;5.90;;
74535;SDS011;63013;51.104;-115.370;2022-09-17T11:03:52;8.10;;;6.20;;
74535;SDS011;63013;51.104;-115.370;2022-09-17T11:06:59;8.60;;;6.20;;
74535;SDS011;63013;51.104;-115.370;2022-09-17T11:09:55;8.50;;;6.40;;
74535;SDS011;63013;51.104;-115.370;2022-09-17T11:18:20;8.40;;;6.10;;
74535;SDS011;63013;51.104;-115.370;2022-09-17T11:27:34;7.70;;;5.80;;
74535;SDS011;63013;51.104;-115.370;2022-09-17T11:30:22;8.20;;;6.00;;
74535;SDS011;63013;51.104;-115.370;2022-09-17T11:40:57;8.00;;;5.50;;
74535;SDS011;63013;51.104;-115.370;2022-09-17T11:43:42;7.80;;;5.60;;
74535;SDS011;63013;51.104;-115.370;2022-09-17T11:46:23;8.00;;;6.00;;
74535;SDS011;63013;51.104;-115.370;2022-09-17T11:49:01;7.60;;;5.70;;
74535;SDS011;63013;51.104;-115.370;2022-09-17T11:51:45;8.00;;;5.70;;
74535;SDS011;63013;51.104;-115.370;2022-09-17T11:54:26;7.40;;;5.80;;
74535;SDS011;63013;51.104;-115.370;2022-09-17T11:57:19;8.20;;;5.70;;
74535;SDS011;63013;51.104;-115.370;2022-09-17T12:00:19;7.60;;;5.90;;
74535;SDS011;63013;51.104;-115.370;2022-09-17T12:02:59;8.70;;;6.00;;
74535;SDS011;63013;51.104;-115.370;2022-09-17T12:05:54;7.60;;;5.80;;
74535;SDS011;63013;51.104;-115.370;2022-09-17T12:09:09;8.40;;;6.20;;
74535;SDS011;63013;51.104;-115.370;2022-09-17T12:17:20;7.60;;;5.40;;
74535;SDS011;63013;51.104;-115.370;2022-09-17T12:20:05;8.80;;;6.00;;
74535;SDS011;63013;51.104;-115.370;2022-09-17T12:22:53;7.90;;;5.90;;
74535;SDS011;63013;51.104;-115.370;2022-09-17T12:25:25;8.30;;;5.30;;
74535;SDS011;63013;51.104;-115.370;2022-09-17T12:28:08;8.90;;;5.90;;
74535;SDS011;63013;51.104;-115.370;2022-09-17T12:30:53;8.10;;;5.80;;
74535;SDS011;63013;51.104;-115.370;2022-09-17T12:33:41;7.70;;;5.70;;
74535;SDS011;63013;51.104;-115.370;2022-09-17T12:36:48;8.40;;;5.70;;
74535;SDS011;63013;51.104;-115.370;2022-09-17T12:39:46;7.10;;;5.20;;
74535;SDS011;63013;51.104;-115.370;2022-09-17T12:43:04;7.80;;;5.20;;
74535;SDS011;63013;51.104;-115.370;2022-09-17T12:49:12;6.60;;;4.90;;
74535;SDS011;63013;51.104;-115.370;2022-09-17T12:52:12;7.70;;;5.40;;
74535;SDS011;63013;51.104;-115.370;2022-09-17T12:55:19;7.50;;;5.10;;
74535;SDS011;63013;51.104;-115.370;2022-09-17T12:58:16;7.60;;;5.40;;
74535;SDS011;63013;51.104;-115.370;2022-09-17T13:01:11;8.30;;;5.40;;
74535;SDS011;63013;51.104;-115.370;2022-09-17T13:03:57;7.60;;;4.90;;
74535;SDS011;63013;51.104;-115.370;2022-09-17T13:06:41;7.30;;;5.10;;
74535;SDS011;63013;51.104;-115.370;2022-09-17T13:12:52;7.50;;;5.00;;
74535;SDS011;63013;51.104;-115.370;2022-09-17T13:16:03;6.60;;;4.60;;
74535;SDS011;63013;51.104;-115.370;2022-09-17T13:19:34;6.50;;;5.00;;
74535;SDS011;63013;51.104;-115.370;2022-09-17T13:24:44;7.10;;;5.20;;
74535;SDS011;63013;51.104;-115.370;2022-09-17T13:27:24;6.50;;;4.80;;
74535;SDS011;63013;51.104;-115.370;2022-09-17T13:37:42;7.10;;;5.10;;
74535;SDS011;63013;51.104;-115.370;2022-09-17T13:40:28;6.00;;;4.90;;
74535;SDS011;63013;51.104;-115.370;2022-09-17T13:46:04;6.70;;;5.00;;
74535;SDS011;63013;51.104;-115.370;2022-09-17T13:48:42;7.10;;;4.90;;
74535;SDS011;63013;51.104;-115.370;2022-09-17T13:54:07;7.00;;;5.10;;
74535;SDS011;63013;51.104;-115.370;2022-09-17T13:56:43;6.60;;;4.50;;
74535;SDS011;63013;51.104;-115.370;2022-09-17T13:59:27;6.80;;;4.70;;
74535;SDS011;63013;51.104;-115.370;2022-09-17T14:02:01;5.90;;;4.70;;
74535;SDS011;63013;51.104;-115.370;2022-09-17T14:04:50;6.90;;;4.90;;
74535;SDS011;63013;51.104;-115.370;2022-09-17T14:07:47;5.90;;;4.40;;
74535;SDS011;63013;51.104;-115.370;2022-09-17T14:13:23;5.60;;;4.30;;
74535;SDS011;63013;51.104;-115.370;2022-09-17T14:15:56;5.80;;;4.30;;
74535;SDS011;63013;51.104;-115.370;2022-09-17T14:23:44;6.20;;;4.60;;
74535;SDS011;63013;51.104;-115.370;2022-09-17T14:33:10;7.20;;;4.30;;
74535;SDS011;63013;51.104;-115.370;2022-09-17T14:35:48;6.00;;;4.20;;
74535;SDS011;63013;51.104;-115.370;2022-09-17T14:44:19;6.60;;;4.10;;
74535;SDS011;63013;51.104;-115.370;2022-09-17T14:46:58;5.80;;;4.20;;
74535;SDS011;63013;51.104;-115.370;2022-09-17T14:49:37;4.90;;;3.80;;
74535;SDS011;63013;51.104;-115.370;2022-09-17T14:52:30;5.40;;;4.20;;
74535;SDS011;63013;51.104;-115.370;2022-09-17T14:55:16;5.70;;;4.00;;
74535;SDS011;63013;51.104;-115.370;2022-09-17T14:57:52;6.60;;;4.50;;
74535;SDS011;63013;51.104;-115.370;2022-09-17T15:00:49;5.10;;;3.90;;
74535;SDS011;63013;51.104;-115.370;2022-09-17T15:03:22;5.80;;;4.20;;
74535;SDS011;63013;51.104;-115.370;2022-09-17T15:05:50;5.00;;;3.80;;
74535;SDS011;63013;51.104;-115.370;2022-09-17T15:08:20;5.20;;;4.20;;
74535;SDS011;63013;51.104;-115.370;2022-09-17T15:10:58;5.80;;;4.20;;
74535;SDS011;63013;51.104;-115.370;2022-09-17T15:13:40;6.90;;;4.00;;
74535;SDS011;63013;51.104;-115.370;2022-09-17T15:16:28;6.70;;;4.30;;
74535;SDS011;63013;51.104;-115.370;2022-09-17T15:18:58;5.50;;;3.60;;
74535;SDS011;63013;51.104;-115.370;2022-09-17T15:21:43;5.30;;;3.90;;
74535;SDS011;63013;51.104;-115.370;2022-09-17T15:27:35;4.90;;;3.70;;
74535;SDS011;63013;51.104;-115.370;2022-09-17T15:30:16;6.40;;;4.20;;
74535;SDS011;63013;51.104;-115.370;2022-09-17T15:32:53;5.30;;;3.60;;
74535;SDS011;63013;51.104;-115.370;2022-09-17T15:35:29;5.30;;;3.80;;
74535;SDS011;63013;51.104;-115.370;2022-09-17T15:38:00;5.60;;;4.00;;
74535;SDS011;63013;51.104;-115.370;2022-09-17T15:40:33;5.20;;;3.80;;
74535;SDS011;63013;51.104;-115.370;2022-09-17T15:43:29;5.00;;;4.00;;
74535;SDS011;63013;51.104;-115.370;2022-09-17T15:48:57;4.90;;;3.60;;
74535;SDS011;63013;51.104;-115.370;2022-09-17T15:51:35;5.40;;;4.00;;
74535;SDS011;63013;51.104;-115.370;2022-09-17T15:54:24;4.50;;;3.50;;
74535;SDS011;63013;51.104;-115.370;2022-09-17T15:56:59;5.60;;;4.10;;
74535;SDS011;63013;51.104;-115.370;2022-09-17T15:59:28;5.30;;;4.00;;
74535;SDS011;63013;51.104;-115.370;2022-09-17T16:02:00;5.60;;;4.00;;
74535;SDS011;63013;51.104;-115.370;2022-09-17T16:04:31;5.70;;;4.00;;
74535;SDS011;63013;51.104;-115.370;2022-09-17T16:07:02;5.60;;;3.70;;
74535;SDS011;63013;51.104;-115.370;2022-09-17T16:09:51;5.60;;;3.90;;
74535;SDS011;63013;51.104;-115.370;2022-09-17T16:12:21;6.40;;;3.90;;
74535;SDS011;63013;51.104;-115.370;2022-09-17T16:14:52;4.90;;;3.40;;
74535;SDS011;63013;51.104;-115.370;2022-09-17T16:17:30;4.90;;;3.60;;
74535;SDS011;63013;51.104;-115.370;2022-09-17T16:22:35;5.00;;;3.80;;
74535;SDS011;63013;51.104;-115.370;2022-09-17T16:25:02;5.00;;;3.90;;
74535;SDS011;63013;51.104;-115.370;2022-09-17T16:27:34;4.80;;;3.70;;
74535;SDS011;63013;51.104;-115.370;2022-09-17T16:30:17;5.40;;;3.80;;
74535;SDS011;63013;51.104;-115.370;2022-09-17T16:32:46;5.10;;;3.50;;
74535;SDS011;63013;51.104;-115.370;2022-09-17T16:35:15;5.40;;;3.60;;
74535;SDS011;63013;51.104;-115.370;2022-09-17T16:37:49;4.50;;;3.40;;
74535;SDS011;63013;51.104;-115.370;2022-09-17T16:40:21;5.10;;;3.30;;
74535;SDS011;63013;51.104;-115.370;2022-09-17T16:42:50;4.60;;;3.40;;
74535;SDS011;63013;51.104;-115.370;2022-09-17T16:45:17;5.10;;;3.60;;
74535;SDS011;63013;51.104;-115.370;2022-09-17T16:47:45;4.80;;;3.80;;
74535;SDS011;63013;51.104;-115.370;2022-09-17T16:50:14;4.70;;;3.50;;
74535;SDS011;63013;51.104;-115.370;2022-09-17T16:52:46;5.30;;;3.70;;
74535;SDS011;63013;51.104;-115.370;2022-09-17T16:55:14;5.20;;;3.70;;
74535;SDS011;63013;51.104;-115.370;2022-09-17T16:57:43;4.70;;;3.30;;
74535;SDS011;63013;51.104;-115.370;2022-09-17T17:00:13;4.50;;;3.30;;
74535;SDS011;63013;51.104;-115.370;2022-09-17T17:02:50;4.30;;;3.20;;
74535;SDS011;63013;51.104;-115.370;2022-09-17T17:05:18;4.20;;;3.20;;
74535;SDS011;63013;51.104;-115.370;2022-09-17T17:07:45;6.00;;;3.40;;
74535;SDS011;63013;51.104;-115.370;2022-09-17T17:10:12;6.40;;;3.40;;
74535;SDS011;63013;51.104;-115.370;2022-09-17T17:12:39;4.20;;;3.20;;
74535;SDS011;63013;51.104;-115.370;2022-09-17T17:15:07;4.70;;;3.50;;
74535;SDS011;63013;51.104;-115.370;2022-09-17T17:17:35;4.40;;;3.30;;
74535;SDS011;63013;51.104;-115.370;2022-09-17T17:20:05;4.70;;;3.10;;
74535;SDS011;63013;51.104;-115.370;2022-09-17T17:22:39;4.40;;;3.50;;
74535;SDS011;63013;51.104;-115.370;2022-09-17T17:25:09;5.20;;;3.50;;
74535;SDS011;63013;51.104;-115.370;2022-09-17T17:27:38;4.70;;;3.20;;
74535;SDS011;63013;51.104;-115.370;2022-09-17T17:30:08;3.80;;;3.20;;
74535;SDS011;63013;51.104;-115.370;2022-09-17T17:32:41;5.70;;;3.40;;